createdAt,value
2024-02-14T00:03:35.559Z,-68
2024-02-14T00:08:39.263Z,-70
2024-02-14T00:13:41.206Z,-68
2024-02-14T00:18:42.834Z,-70
2024-02-14T00:29:00.842Z,-70
2024-02-14T00:34:02.776Z,-69
2024-02-14T00:39:05.460Z,-70
2024-02-14T00:44:07.587Z,-71
2024-02-14T00:49:09.822Z,-67
2024-02-14T00:54:11.546Z,-70
2024-02-14T00:59:13.159Z,-69
2024-02-14T01:04:14.728Z,-71
2024-02-14T01:09:16.378Z,-74
2024-02-14T01:14:18.025Z,-70
2024-02-14T01:19:20.955Z,-69
2024-02-14T01:24:23.612Z,-70
2024-02-14T01:29:25.181Z,-71
2024-02-14T01:34:26.911Z,-70
2024-02-14T01:39:28.670Z,-70
2024-02-14T01:44:30.303Z,-68
2024-02-14T01:49:32.357Z,-71
2024-02-14T01:54:36.136Z,-71
2024-02-14T01:59:37.914Z,-70
2024-02-14T02:04:39.461Z,-71
2024-02-14T02:09:41.066Z,-70
2024-02-14T02:14:42.671Z,-71
2024-02-14T02:19:44.903Z,-69
2024-02-14T02:24:47.308Z,-69
2024-02-14T02:29:48.989Z,-70
2024-02-14T02:34:50.752Z,-71
2024-02-14T02:39:52.490Z,-70
2024-02-14T02:44:54.553Z,-70
2024-02-14T02:49:56.574Z,-69
2024-02-14T02:54:58.356Z,-69
2024-02-14T03:00:00.089Z,-72
2024-02-14T03:05:03.979Z,-71
2024-02-14T03:10:06.834Z,-70
2024-02-14T03:15:11.783Z,-70
2024-02-14T03:20:16.717Z,-70
2024-02-14T03:25:21.706Z,-69
2024-02-14T03:30:24.030Z,-69
2024-02-14T03:35:28.162Z,-71
2024-02-14T03:40:31.500Z,-70
2024-02-14T03:45:33.115Z,-70
2024-02-14T03:50:34.662Z,-70
2024-02-14T03:55:36.241Z,-69
2024-02-14T04:00:38.721Z,-70
2024-02-14T04:05:40.514Z,-70
2024-02-14T04:10:42.234Z,-70
2024-02-14T04:15:47.545Z,-71
2024-02-14T04:20:49.900Z,-71
2024-02-14T04:25:51.586Z,-71
2024-02-14T04:30:54.555Z,-70
2024-02-14T04:35:56.477Z,-71
2024-02-14T04:40:59.575Z,-69
2024-02-14T04:46:01.598Z,-70
2024-02-14T04:51:05.637Z,-70
2024-02-14T04:56:08.891Z,-69
2024-02-14T05:01:11.867Z,-70
2024-02-14T05:06:13.599Z,-70
2024-02-14T05:11:15.518Z,-70
2024-02-14T05:16:21.781Z,-72
2024-02-14T05:21:23.435Z,-72
2024-02-14T05:26:24.958Z,-70
2024-02-14T05:31:43.796Z,-70
2024-02-14T05:36:47.405Z,-69
2024-02-14T05:41:50.396Z,-68
2024-02-14T05:46:52.111Z,-69
2024-02-14T05:51:54.580Z,-70
2024-02-14T05:56:56.159Z,-71
2024-02-14T06:01:57.924Z,-69
2024-02-14T06:06:59.665Z,-69
2024-02-14T06:12:01.493Z,-69
2024-02-14T06:17:03.328Z,-71
2024-02-14T06:22:05.142Z,-71
2024-02-14T06:27:07.775Z,-71
2024-02-14T06:32:09.622Z,-69
2024-02-14T06:37:11.173Z,-68
2024-02-14T06:42:12.767Z,-67
2024-02-14T06:47:14.412Z,-66
2024-02-14T06:52:16.013Z,-64
2024-02-14T06:57:17.543Z,-69
2024-02-14T07:02:19.165Z,-66
2024-02-14T07:07:20.705Z,-63
2024-02-14T07:12:22.521Z,-70
2024-02-14T07:17:24.660Z,-68
2024-02-14T07:22:26.290Z,-67
2024-02-14T07:27:28.206Z,-70
2024-02-14T07:32:29.906Z,-71
2024-02-14T07:37:31.848Z,-68
2024-02-14T07:42:33.517Z,-69
2024-02-14T07:47:35.244Z,-67
2024-02-14T07:52:37.655Z,-71
2024-02-14T07:57:40.404Z,-68
2024-02-14T08:02:42.040Z,-67
2024-02-14T08:07:43.820Z,-66
2024-02-14T08:12:45.351Z,-66
2024-02-14T08:17:47.594Z,-67
2024-02-14T08:22:50.528Z,-67
2024-02-14T08:27:52.231Z,-65
2024-02-14T08:32:53.932Z,-66
2024-02-14T08:37:57.886Z,-68
2024-02-14T08:43:00.803Z,-69
2024-02-14T08:48:05.727Z,-68
2024-02-14T08:53:07.980Z,-68
2024-02-14T08:58:13.253Z,-68
2024-02-14T09:03:14.916Z,-70
2024-02-14T09:08:16.671Z,-69
2024-02-14T09:13:18.367Z,-68
2024-02-14T09:18:20.386Z,-66
2024-02-14T09:23:23.685Z,-66
2024-02-14T09:28:26.438Z,-67
2024-02-14T09:33:28.713Z,-68
2024-02-14T09:38:30.617Z,-70
2024-02-14T09:43:45.526Z,-68
2024-02-14T09:48:47.415Z,-66
2024-02-14T09:53:50.736Z,-65
2024-02-14T09:58:57.671Z,-64
2024-02-14T10:03:59.709Z,-65
2024-02-14T10:09:04.255Z,-66
2024-02-14T10:14:10.327Z,-65
2024-02-14T10:19:21.700Z,-67
2024-02-14T10:24:24.989Z,-67
2024-02-14T10:29:27.241Z,-65
2024-02-14T10:34:30.115Z,-68
2024-02-14T10:39:33.829Z,-68
2024-02-14T10:44:36.632Z,-67
2024-02-14T10:49:41.247Z,-68
2024-02-14T10:54:51.264Z,-68
2024-02-14T10:59:54.834Z,-67
2024-02-14T11:04:56.775Z,-67
2024-02-14T11:10:18.726Z,-69
2024-02-14T11:15:22.909Z,-67
2024-02-14T11:20:34.503Z,-68
2024-02-14T11:25:36.613Z,-69
2024-02-14T11:30:38.581Z,-68
2024-02-14T11:35:42.653Z,-67
2024-02-14T11:40:44.925Z,-68
2024-02-14T11:45:50.571Z,-68
2024-02-14T11:50:53.602Z,-68
2024-02-14T11:55:57.530Z,-68
2024-02-14T12:00:59.199Z,-68
2024-02-14T12:06:03.146Z,-67
2024-02-14T12:11:05.197Z,-67
2024-02-14T12:16:08.309Z,-69
2024-02-14T12:21:09.986Z,-69
2024-02-14T12:26:16.645Z,-68
2024-02-14T12:31:25.313Z,-68
2024-02-14T12:36:29.001Z,-68
2024-02-14T12:41:31.936Z,-69
2024-02-14T12:46:35.113Z,-67
2024-02-14T12:51:39.827Z,-67
2024-02-14T12:56:41.705Z,-67
2024-02-14T13:01:44.675Z,-67
2024-02-14T13:06:48.056Z,-67
2024-02-14T13:11:49.687Z,-67
2024-02-14T13:16:52.104Z,-67
2024-02-14T13:21:53.759Z,-67
2024-02-14T13:26:55.350Z,-67
2024-02-14T13:31:56.912Z,-67
2024-02-14T13:36:59.698Z,-69
2024-02-14T13:42:02.535Z,-66
2024-02-14T13:47:04.886Z,-67
2024-02-14T13:52:06.620Z,-67
2024-02-14T13:57:08.574Z,-69
2024-02-14T14:02:12.820Z,-66
2024-02-14T14:07:17.120Z,-64
2024-02-14T14:12:18.739Z,-65
2024-02-14T14:17:20.760Z,-65
2024-02-14T14:22:22.413Z,-67
2024-02-14T14:27:24.000Z,-69
2024-02-14T14:32:25.631Z,-69
2024-02-14T14:37:27.228Z,-67
2024-02-14T14:42:30.349Z,-67
2024-02-14T14:47:31.998Z,-66
2024-02-14T14:52:34.976Z,-68
2024-02-14T14:57:41.892Z,-67
2024-02-14T15:02:44.623Z,-65
2024-02-14T15:07:46.825Z,-65
2024-02-14T15:12:50.857Z,-67
2024-02-14T15:17:52.553Z,-67
2024-02-14T15:22:54.291Z,-69
2024-02-14T15:27:56.129Z,-67
2024-02-14T15:33:16.834Z,-68
2024-02-14T15:38:20.160Z,-67
2024-02-14T15:43:22.187Z,-66
2024-02-14T15:48:28.041Z,-67
2024-02-14T15:53:31.743Z,-68
2024-02-14T15:58:34.924Z,-67
2024-02-14T16:03:36.483Z,-68
2024-02-14T16:08:38.400Z,-67
2024-02-14T16:13:39.968Z,-65
2024-02-14T16:18:41.796Z,-68
2024-02-14T16:23:43.513Z,-65
2024-02-14T16:28:46.548Z,-64
2024-02-14T16:33:50.950Z,-67
2024-02-14T16:38:52.894Z,-65
2024-02-14T16:43:57.236Z,-66
2024-02-14T16:48:59.019Z,-69
2024-02-14T16:54:00.889Z,-68
2024-02-14T16:59:02.502Z,-68
2024-02-14T17:04:06.084Z,-66
2024-02-14T17:09:08.307Z,-67
2024-02-14T17:14:11.117Z,-68
2024-02-14T17:19:12.986Z,-67
2024-02-14T17:24:15.087Z,-69
2024-02-14T17:29:17.830Z,-68
2024-02-14T17:34:19.548Z,-64
2024-02-14T17:39:21.322Z,-62
2024-02-14T17:44:22.975Z,-63
2024-02-14T17:49:24.795Z,-66
2024-02-14T17:54:27.456Z,-66
2024-02-14T17:59:29.028Z,-66
2024-02-14T18:04:30.817Z,-67
2024-02-14T18:09:32.420Z,-66
2024-02-14T18:14:34.069Z,-68
2024-02-14T18:19:35.647Z,-67
2024-02-14T18:24:40.167Z,-65
2024-02-14T18:29:42.129Z,-65
2024-02-14T18:34:43.800Z,-64
2024-02-14T18:39:45.386Z,-66
2024-02-14T18:44:48.348Z,-66
2024-02-14T18:49:50.618Z,-66
2024-02-14T18:54:52.348Z,-65
2024-02-14T18:59:54.347Z,-65
2024-02-14T19:04:57.539Z,-67
2024-02-14T19:10:01.638Z,-66
2024-02-14T19:15:05.018Z,-61
2024-02-14T19:20:09.673Z,-63
2024-02-14T19:25:11.732Z,-64
2024-02-14T19:30:19.157Z,-64
2024-02-14T19:35:21.032Z,-64
2024-02-14T19:40:24.874Z,-65
2024-02-14T19:45:26.697Z,-65
2024-02-14T19:50:28.362Z,-64
2024-02-14T19:55:29.982Z,-64
2024-02-14T20:00:33.238Z,-67
2024-02-14T20:05:38.086Z,-66
2024-02-14T20:10:40.490Z,-66
2024-02-14T20:15:42.068Z,-64
2024-02-14T20:20:43.815Z,-67
2024-02-14T20:25:45.481Z,-65
2024-02-14T20:30:47.127Z,-67
2024-02-14T20:35:50.071Z,-63
2024-02-14T20:40:51.656Z,-68
2024-02-14T20:45:53.299Z,-66
2024-02-14T20:50:54.915Z,-61
2024-02-14T20:55:56.887Z,-63
2024-02-14T21:00:58.595Z,-64
2024-02-14T21:06:01.151Z,-67
2024-02-14T21:11:02.885Z,-67
2024-02-14T21:16:05.689Z,-67
2024-02-14T21:21:10.550Z,-66
2024-02-14T21:26:12.448Z,-65
2024-02-14T21:31:14.464Z,-66
2024-02-14T21:36:16.685Z,-65
2024-02-14T21:41:19.212Z,-66
2024-02-14T21:46:20.784Z,-65
2024-02-14T21:51:22.371Z,-66
2024-02-14T21:56:23.932Z,-65
2024-02-14T22:01:25.666Z,-65
2024-02-14T22:06:27.749Z,-65
2024-02-14T22:11:29.517Z,-65
2024-02-14T22:16:31.129Z,-65
2024-02-14T22:21:33.629Z,-65
2024-02-14T22:26:35.274Z,-65
2024-02-14T22:31:37.074Z,-66
2024-02-14T22:36:38.887Z,-65
2024-02-14T22:41:41.629Z,-65
2024-02-14T22:46:44.782Z,-65
2024-02-14T22:51:46.561Z,-65
2024-02-14T22:56:48.535Z,-64
2024-02-14T23:01:50.065Z,-65
2024-02-14T23:06:51.755Z,-65
2024-02-14T23:11:53.414Z,-64
2024-02-14T23:16:54.989Z,-65
2024-02-14T23:21:56.686Z,-68
2024-02-14T23:26:58.739Z,-64
2024-02-14T23:32:00.398Z,-67
2024-02-14T23:37:02.410Z,-65
2024-02-14T23:42:04.470Z,-66
2024-02-14T23:47:08.179Z,-67
2024-02-14T23:52:10.079Z,-67
2024-02-14T23:57:12.130Z,-67
